createdAt,value
2023-04-10T00:01:39.814Z,56.53
2023-04-10T00:04:08.378Z,56.32
2023-04-10T00:06:37.284Z,56.64
2023-04-10T00:09:05.621Z,56.63
2023-04-10T00:11:33.951Z,56.65
2023-04-10T00:14:04.196Z,56.85
2023-04-10T00:16:32.517Z,56.72
2023-04-10T00:19:01.207Z,56.59
2023-04-10T00:21:29.487Z,57.00
2023-04-10T00:23:58.150Z,56.79
2023-04-10T00:26:27.009Z,56.70
2023-04-10T00:28:55.340Z,56.68
2023-04-10T00:31:25.097Z,56.86
2023-04-10T00:33:53.721Z,56.93
2023-04-10T00:36:22.299Z,57.11
2023-04-10T00:38:51.009Z,57.08
2023-04-10T00:41:19.298Z,57.01
2023-04-10T00:43:47.783Z,57.02
2023-04-10T00:46:16.298Z,57.29
2023-04-10T00:48:46.781Z,57.38
2023-04-10T00:51:15.182Z,57.22
2023-04-10T00:53:43.619Z,57.43
2023-04-10T00:56:12.378Z,57.72
2023-04-10T00:58:40.989Z,57.81
2023-04-10T01:01:09.557Z,57.93
2023-04-10T01:03:40.190Z,57.68
2023-04-10T01:06:17.934Z,57.49
2023-04-10T01:08:55.205Z,57.61
2023-04-10T01:11:34.496Z,57.75
2023-04-10T01:14:08.678Z,57.72
2023-04-10T01:16:45.374Z,57.52
2023-04-10T01:19:34.228Z,57.71
2023-04-10T01:22:05.666Z,58.04
2023-04-10T01:24:50.095Z,58.12
2023-04-10T01:27:32.536Z,58.26
2023-04-10T01:30:04.526Z,58.29
2023-04-10T01:32:37.695Z,58.34
2023-04-10T01:35:09.424Z,58.31
2023-04-10T01:37:43.778Z,58.43
2023-04-10T01:40:16.550Z,58.21
2023-04-10T01:42:49.057Z,58.37
2023-04-10T01:45:21.565Z,58.24
2023-04-10T01:47:49.972Z,58.16
2023-04-10T01:50:19.212Z,58.40
2023-04-10T01:52:48.860Z,58.58
2023-04-10T01:55:17.819Z,58.47
2023-04-10T01:57:49.038Z,58.62
2023-04-10T02:00:19.218Z,58.56
2023-04-10T02:02:47.800Z,58.59
2023-04-10T02:05:18.315Z,58.56
2023-04-10T02:07:51.913Z,58.70
2023-04-10T02:10:27.060Z,58.49
2023-04-10T02:13:01.401Z,59.07
2023-04-10T02:15:34.004Z,58.73
2023-04-10T02:18:05.132Z,58.94
2023-04-10T02:20:34.296Z,59.05
2023-04-10T02:23:04.137Z,59.08
2023-04-10T02:25:33.634Z,58.95
2023-04-10T02:28:06.307Z,59.28
2023-04-10T02:30:36.648Z,59.33
2023-04-10T02:33:05.128Z,59.46
2023-04-10T02:35:33.577Z,59.54
2023-04-10T02:38:02.012Z,59.90
2023-04-10T02:40:31.001Z,59.88
2023-04-10T02:42:59.380Z,59.79
2023-04-10T02:45:27.757Z,59.97
2023-04-10T02:47:57.797Z,60.07
2023-04-10T02:50:29.759Z,59.80
2023-04-10T02:52:58.216Z,60.40
2023-04-10T02:55:27.036Z,60.15
2023-04-10T02:57:55.905Z,59.97
2023-04-10T03:00:24.519Z,60.24
2023-04-10T03:02:53.953Z,60.03
2023-04-10T03:05:23.915Z,59.77
2023-04-10T03:07:54.384Z,59.57
2023-04-10T03:10:22.725Z,59.77
2023-04-10T03:12:50.984Z,59.84
2023-04-10T03:15:19.532Z,59.63
2023-04-10T03:17:48.193Z,59.45
2023-04-10T03:20:17.137Z,59.52
2023-04-10T03:22:47.156Z,59.62
2023-04-10T03:25:16.210Z,59.37
2023-04-10T03:27:44.527Z,59.10
2023-04-10T03:30:13.158Z,59.11
2023-04-10T03:32:43.197Z,59.37
2023-04-10T03:35:12.124Z,59.38
2023-04-10T03:37:42.301Z,59.23
2023-04-10T03:40:13.465Z,59.42
2023-04-10T03:42:41.778Z,59.46
2023-04-10T03:45:11.410Z,59.20
2023-04-10T03:47:39.779Z,59.19
2023-04-10T03:50:08.663Z,58.90
2023-04-10T03:52:36.941Z,58.96
2023-04-10T03:55:05.693Z,59.47
2023-04-10T03:57:35.377Z,59.12
2023-04-10T04:00:04.199Z,58.96
2023-04-10T04:02:32.948Z,59.13
2023-04-10T04:05:01.641Z,59.29
2023-04-10T04:07:29.983Z,59.07
2023-04-10T04:09:58.582Z,59.01
2023-04-10T04:12:26.927Z,58.74
2023-04-10T04:14:56.979Z,58.96
2023-04-10T04:17:25.319Z,59.08
2023-04-10T04:19:53.667Z,59.03
2023-04-10T04:22:22.524Z,58.78
2023-04-10T04:24:50.838Z,58.60
2023-04-10T04:27:21.828Z,58.81
2023-04-10T04:29:50.276Z,58.77
2023-04-10T04:32:20.400Z,58.78
2023-04-10T04:34:48.872Z,58.42
2023-04-10T04:37:17.752Z,58.63
2023-04-10T04:39:46.086Z,58.20
2023-04-10T04:42:14.410Z,58.41
2023-04-10T04:44:42.751Z,58.39
2023-04-10T04:47:11.108Z,58.21
2023-04-10T04:49:40.789Z,58.39
2023-04-10T04:52:09.415Z,58.54
2023-04-10T04:54:37.716Z,58.57
2023-04-10T04:57:06.057Z,58.49
2023-04-10T04:59:34.508Z,58.46
2023-04-10T05:02:02.992Z,57.89
2023-04-10T05:04:32.040Z,57.64
2023-04-10T05:07:01.737Z,57.80
2023-04-10T05:09:30.091Z,57.63
2023-04-10T05:11:58.948Z,57.58
2023-04-10T05:14:27.234Z,57.83
2023-04-10T05:16:55.560Z,57.87
2023-04-10T05:19:23.829Z,57.98
2023-04-10T05:21:52.169Z,58.06
2023-04-10T05:24:22.464Z,57.97
2023-04-10T05:26:50.910Z,58.04
2023-04-10T05:29:19.261Z,58.19
2023-04-10T05:31:48.006Z,57.94
2023-04-10T05:34:17.256Z,58.05
2023-04-10T05:36:45.731Z,58.18
2023-04-10T05:39:15.843Z,58.13
2023-04-10T05:41:45.991Z,58.02
2023-04-10T05:44:14.269Z,57.87
2023-04-10T05:46:42.614Z,58.05
2023-04-10T05:49:10.986Z,57.96
2023-04-10T05:51:39.886Z,57.92
2023-04-10T05:54:08.667Z,57.55
2023-04-10T05:56:37.311Z,57.46
2023-04-10T05:59:07.471Z,57.54
2023-04-10T06:01:35.831Z,57.36
2023-04-10T06:04:04.920Z,56.85
2023-04-10T06:06:33.692Z,56.79
2023-04-10T06:09:02.323Z,56.87
2023-04-10T06:11:30.970Z,56.74
2023-04-10T06:13:59.382Z,56.42
2023-04-10T06:16:29.545Z,56.30
2023-04-10T06:18:58.091Z,56.16
2023-04-10T06:21:26.545Z,56.17
2023-04-10T06:23:55.354Z,56.01
2023-04-10T06:26:23.921Z,55.94
2023-04-10T06:28:52.472Z,56.03
2023-04-10T06:31:23.032Z,55.81
2023-04-10T06:33:53.015Z,55.33
2023-04-10T06:36:21.795Z,55.43
2023-04-10T06:38:50.111Z,55.18
2023-04-10T06:41:18.494Z,55.34
2023-04-10T06:43:47.288Z,54.97
2023-04-10T06:46:16.304Z,54.92
2023-04-10T06:48:44.996Z,54.81
2023-04-10T06:51:15.179Z,54.64
2023-04-10T06:53:43.494Z,54.41
2023-04-10T06:56:12.524Z,54.28
2023-04-10T06:58:41.586Z,54.18
2023-04-10T07:01:10.221Z,53.76
2023-04-10T07:03:38.542Z,53.86
2023-04-10T07:06:08.611Z,53.54
2023-04-10T07:08:38.597Z,53.41
2023-04-10T07:11:07.341Z,53.39
2023-04-10T07:13:38.913Z,53.21
2023-04-10T07:16:09.071Z,53.20
2023-04-10T07:18:38.761Z,53.02
2023-04-10T07:21:12.695Z,52.67
2023-04-10T07:23:42.446Z,52.69
2023-04-10T07:26:10.840Z,52.66
2023-04-10T07:28:40.217Z,52.34
2023-04-10T07:31:10.693Z,52.29
2023-04-10T07:33:39.394Z,52.37
2023-04-10T07:36:08.608Z,52.20
2023-04-10T07:38:37.911Z,52.05
2023-04-10T07:41:08.230Z,51.56
2023-04-10T07:43:36.572Z,51.55
2023-04-10T07:46:05.460Z,51.41
2023-04-10T07:48:33.807Z,51.17
2023-04-10T07:51:02.398Z,51.06
2023-04-10T07:53:31.433Z,50.92
2023-04-10T07:55:59.714Z,50.74
2023-04-10T07:58:29.707Z,50.90
2023-04-10T08:00:57.992Z,50.66
2023-04-10T08:03:26.579Z,50.78
2023-04-10T08:05:55.113Z,50.37
2023-04-10T08:08:23.777Z,50.17
2023-04-10T08:10:52.099Z,50.12
2023-04-10T08:13:20.372Z,49.94
2023-04-10T08:15:50.523Z,49.60
2023-04-10T08:18:19.184Z,49.68
2023-04-10T08:20:47.585Z,49.60
2023-04-10T08:23:20.510Z,49.39
2023-04-10T08:25:49.727Z,49.37
2023-04-10T08:28:19.477Z,49.37
2023-04-10T08:30:47.941Z,49.07
2023-04-10T08:33:17.641Z,49.06
2023-04-10T08:35:48.948Z,48.79
2023-04-10T08:38:17.309Z,48.85
2023-04-10T08:40:45.714Z,48.40
2023-04-10T08:43:14.204Z,48.38
2023-04-10T08:45:42.754Z,48.41
2023-04-10T08:48:12.804Z,48.20
2023-04-10T08:50:44.385Z,47.84
2023-04-10T08:53:14.660Z,47.87
2023-04-10T08:55:43.694Z,47.80
2023-04-10T08:58:13.875Z,47.47
2023-04-10T09:00:42.597Z,47.34
2023-04-10T09:03:14.521Z,47.30
2023-04-10T09:05:44.402Z,47.38
2023-04-10T09:08:13.705Z,47.46
2023-04-10T09:10:42.053Z,47.39
2023-04-10T09:13:10.539Z,47.09
2023-04-10T09:15:58.575Z,46.10
2023-04-10T09:18:43.193Z,46.56
2023-04-10T09:21:14.832Z,46.77
2023-04-10T09:23:44.613Z,46.63
2023-04-10T09:26:34.198Z,45.70
2023-04-10T09:29:04.472Z,46.43
2023-04-10T09:31:35.113Z,46.31
2023-04-10T09:34:14.788Z,46.08
2023-04-10T09:36:46.241Z,46.09
2023-04-10T09:39:14.557Z,45.99
2023-04-10T09:41:51.579Z,45.55
2023-04-10T09:44:29.356Z,45.60
2023-04-10T09:46:58.025Z,45.47
2023-04-10T09:49:26.963Z,45.38
2023-04-10T09:51:56.785Z,44.83
2023-04-10T09:54:38.844Z,44.14
2023-04-10T09:57:08.568Z,44.35
2023-04-10T09:59:42.966Z,44.08
2023-04-10T10:02:12.394Z,44.17
2023-04-10T10:04:43.925Z,43.25
2023-04-10T10:07:14.281Z,43.20
2023-04-10T10:09:43.644Z,43.22
2023-04-10T10:12:12.909Z,42.93
2023-04-10T10:14:58.794Z,42.45
2023-04-10T10:17:33.940Z,42.40
2023-04-10T10:20:05.757Z,42.01
2023-04-10T10:22:36.605Z,41.88
2023-04-10T10:25:05.933Z,41.48
2023-04-10T10:27:39.067Z,40.60
2023-04-10T10:30:28.265Z,41.33
2023-04-10T10:32:59.032Z,41.39
2023-04-10T10:35:29.619Z,40.95
2023-04-10T10:38:01.503Z,40.38
2023-04-10T10:40:33.861Z,40.60
2023-04-10T10:43:16.360Z,39.61
2023-04-10T10:45:53.788Z,39.89
2023-04-10T10:48:22.490Z,39.96
2023-04-10T10:50:57.318Z,39.50
2023-04-10T10:53:40.533Z,37.92
2023-04-10T10:56:36.533Z,38.25
2023-04-10T10:59:04.887Z,39.12
2023-04-10T11:01:33.456Z,38.99
2023-04-10T11:04:02.394Z,38.23
2023-04-10T11:06:54.965Z,38.06
2023-04-10T11:09:51.181Z,37.75
2023-04-10T11:12:21.818Z,37.99
2023-04-10T11:15:00.016Z,37.80
2023-04-10T11:17:51.542Z,36.97
2023-04-10T11:20:25.843Z,37.72
2023-04-10T11:23:11.449Z,36.34
2023-04-10T11:25:52.120Z,37.54
2023-04-10T11:28:38.239Z,37.12
2023-04-10T11:31:18.912Z,36.55
2023-04-10T11:33:48.174Z,37.08
2023-04-10T11:36:18.886Z,36.71
2023-04-10T11:38:57.906Z,35.74
2023-04-10T11:41:32.138Z,35.60
2023-04-10T11:44:01.799Z,36.17
2023-04-10T11:46:30.681Z,35.83
2023-04-10T11:49:00.938Z,35.72
2023-04-10T11:51:29.789Z,35.74
2023-04-10T11:54:09.637Z,35.75
2023-04-10T11:56:40.806Z,35.80
2023-04-10T11:59:11.101Z,35.55
2023-04-10T12:01:42.703Z,35.35
2023-04-10T12:04:18.214Z,34.20
2023-04-10T12:06:47.272Z,34.95
2023-04-10T12:09:17.593Z,34.70
2023-04-10T12:11:55.448Z,34.53
2023-04-10T12:14:25.227Z,34.12
2023-04-10T12:16:54.032Z,34.08
2023-04-10T12:19:23.758Z,33.98
2023-04-10T12:21:52.102Z,34.11
2023-04-10T12:24:45.051Z,32.74
2023-04-10T12:27:21.901Z,33.77
2023-04-10T12:29:52.104Z,34.19
2023-04-10T12:32:20.905Z,33.97
2023-04-10T12:34:52.497Z,33.75
2023-04-10T12:37:21.243Z,33.92
2023-04-10T12:39:50.039Z,33.90
2023-04-10T12:42:21.240Z,33.76
2023-04-10T12:44:53.821Z,33.77
2023-04-10T12:47:22.923Z,33.70
2023-04-10T12:50:10.865Z,33.04
2023-04-10T12:52:40.804Z,33.58
2023-04-10T12:55:14.170Z,33.14
2023-04-10T12:57:45.022Z,33.78
2023-04-10T13:00:15.627Z,33.60
2023-04-10T13:02:44.612Z,33.76
2023-04-10T13:05:13.896Z,33.85
2023-04-10T13:07:43.062Z,33.85
2023-04-10T13:10:11.903Z,33.29
2023-04-10T13:12:42.168Z,33.24
2023-04-10T13:15:12.541Z,33.26
2023-04-10T13:17:41.840Z,33.29
2023-04-10T13:20:11.978Z,33.10
2023-04-10T13:22:40.295Z,33.17
2023-04-10T13:25:09.201Z,33.11
2023-04-10T13:27:37.554Z,32.99
2023-04-10T13:30:06.532Z,33.03
2023-04-10T13:32:36.620Z,33.18
2023-04-10T13:35:05.181Z,33.21
2023-04-10T13:37:33.594Z,33.33
2023-04-10T13:40:01.989Z,33.30
2023-04-10T13:42:30.591Z,33.21
2023-04-10T13:44:58.934Z,32.95
2023-04-10T13:47:27.299Z,33.06
2023-04-10T13:49:57.696Z,32.92
2023-04-10T13:52:26.118Z,33.02
2023-04-10T13:54:54.428Z,33.12
2023-04-10T13:57:23.051Z,33.10
2023-04-10T13:59:51.392Z,32.95
2023-04-10T14:02:20.292Z,33.13
2023-04-10T14:04:48.726Z,33.05
2023-04-10T14:07:19.650Z,33.10
2023-04-10T14:09:48.738Z,33.34
2023-04-10T14:12:19.298Z,33.27
2023-04-10T14:14:47.594Z,33.43
2023-04-10T14:17:15.921Z,33.50
2023-04-10T14:19:46.477Z,33.52
2023-04-10T14:22:14.789Z,33.42
2023-04-10T14:24:44.544Z,33.21
2023-04-10T14:27:13.500Z,32.97
2023-04-10T14:29:50.560Z,32.92
2023-04-10T14:32:22.985Z,32.98
2023-04-10T14:34:51.395Z,33.24
2023-04-10T14:37:19.998Z,33.28
2023-04-10T14:39:50.170Z,33.25
2023-04-10T14:42:18.458Z,33.30
2023-04-10T14:44:46.870Z,33.47
2023-04-10T14:47:15.146Z,33.35
2023-04-10T14:49:43.456Z,33.28
2023-04-10T14:52:12.059Z,33.22
2023-04-10T14:54:40.395Z,33.22
2023-04-10T14:57:10.111Z,33.14
2023-04-10T14:59:38.381Z,33.08
2023-04-10T15:02:06.801Z,33.08
2023-04-10T15:04:35.297Z,32.87
2023-04-10T15:07:03.676Z,32.93
2023-04-10T15:09:33.730Z,32.77
2023-04-10T15:12:02.139Z,32.52
2023-04-10T15:14:32.307Z,32.49
2023-04-10T15:17:00.907Z,32.69
2023-04-10T15:19:29.243Z,32.75
2023-04-10T15:21:57.580Z,32.91
2023-04-10T15:24:25.917Z,33.08
2023-04-10T15:26:54.297Z,33.19
2023-04-10T15:29:22.632Z,33.25
2023-04-10T15:31:52.507Z,33.24
2023-04-10T15:34:21.182Z,33.24
2023-04-10T15:36:49.647Z,33.21
2023-04-10T15:39:17.975Z,33.25
2023-04-10T15:41:46.414Z,33.27
2023-04-10T15:44:14.764Z,33.37
2023-04-10T15:46:43.161Z,33.61
2023-04-10T15:49:14.934Z,33.47
2023-04-10T15:51:47.390Z,33.54
2023-04-10T15:54:15.753Z,33.59
2023-04-10T15:56:44.103Z,33.62
2023-04-10T15:59:12.424Z,33.66
2023-04-10T16:01:41.101Z,33.61
2023-04-10T16:04:09.512Z,33.60
2023-04-10T16:06:39.418Z,33.80
2023-04-10T16:09:22.109Z,33.91
2023-04-10T16:11:53.538Z,33.93
2023-04-10T16:14:22.767Z,33.92
2023-04-10T16:16:51.423Z,33.96
2023-04-10T16:19:19.815Z,33.95
2023-04-10T16:21:50.315Z,34.13
2023-04-10T16:24:18.956Z,34.09
2023-04-10T16:26:47.337Z,34.16
2023-04-10T16:29:27.546Z,34.46
2023-04-10T16:31:55.976Z,34.45
2023-04-10T16:34:24.925Z,34.46
2023-04-10T16:36:54.625Z,34.36
2023-04-10T16:39:23.274Z,34.17
2023-04-10T16:41:51.547Z,34.31
2023-04-10T16:44:19.887Z,34.32
2023-04-10T16:46:48.257Z,34.27
2023-04-10T16:49:16.955Z,34.44
2023-04-10T16:51:45.397Z,34.66
2023-04-10T16:54:15.129Z,34.82
2023-04-10T16:56:43.493Z,35.04
2023-04-10T16:59:11.791Z,35.19
2023-04-10T17:01:41.179Z,35.31
2023-04-10T17:04:10.646Z,35.40
2023-04-10T17:06:39.037Z,35.57
2023-04-10T17:09:07.387Z,35.75
2023-04-10T17:11:37.152Z,35.72
2023-04-10T17:14:06.672Z,35.87
2023-04-10T17:16:35.267Z,36.09
2023-04-10T17:19:03.747Z,36.16
2023-04-10T17:21:32.547Z,36.30
2023-04-10T17:24:00.951Z,36.34
2023-04-10T17:26:29.367Z,36.53
2023-04-10T17:28:59.149Z,36.66
2023-04-10T17:31:27.815Z,36.71
2023-04-10T17:33:56.225Z,36.86
2023-04-10T17:36:25.024Z,36.88
2023-04-10T17:38:54.277Z,37.05
2023-04-10T17:41:23.065Z,37.02
2023-04-10T17:43:51.543Z,37.14
2023-04-10T17:46:21.385Z,37.38
2023-04-10T17:48:49.813Z,37.28
2023-04-10T17:51:18.141Z,37.40
2023-04-10T17:53:46.897Z,37.58
2023-04-10T17:56:21.217Z,37.73
2023-04-10T17:58:49.977Z,38.01
2023-04-10T18:01:29.795Z,37.88
2023-04-10T18:03:59.349Z,38.10
2023-04-10T18:06:27.887Z,38.14
2023-04-10T18:08:57.477Z,38.33
2023-04-10T18:11:26.286Z,38.28
2023-04-10T18:13:54.738Z,38.43
2023-04-10T18:16:23.141Z,38.31
2023-04-10T18:18:53.284Z,38.48
2023-04-10T18:21:22.449Z,38.44
2023-04-10T18:23:50.942Z,38.55
2023-04-10T18:26:21.125Z,38.59
2023-04-10T18:28:49.539Z,38.38
2023-04-10T18:31:19.239Z,38.38
2023-04-10T18:33:56.177Z,38.53
2023-04-10T18:36:33.792Z,38.52
2023-04-10T18:39:02.220Z,38.35
2023-04-10T18:41:30.831Z,38.38
2023-04-10T18:44:05.033Z,38.39
2023-04-10T18:46:34.095Z,38.41
2023-04-10T18:49:03.328Z,38.15
2023-04-10T18:51:34.977Z,38.12
2023-04-10T18:54:03.630Z,38.25
2023-04-10T18:56:32.318Z,38.18
2023-04-10T18:59:00.707Z,38.20
2023-04-10T19:01:29.156Z,38.17
2023-04-10T19:03:57.806Z,38.11
2023-04-10T19:06:28.007Z,38.07
2023-04-10T19:08:58.477Z,37.98
2023-04-10T19:11:26.778Z,38.00
2023-04-10T19:13:55.944Z,38.00
2023-04-10T19:16:24.624Z,37.99
2023-04-10T19:18:55.775Z,38.04
2023-04-10T19:21:24.428Z,38.14
2023-04-10T19:23:53.074Z,38.09
2023-04-10T19:26:23.113Z,38.25
2023-04-10T19:28:51.776Z,38.42
2023-04-10T19:31:21.021Z,38.26
2023-04-10T19:33:49.463Z,38.09
2023-04-10T19:36:20.714Z,38.18
2023-04-10T19:38:51.300Z,38.34
2023-04-10T19:41:19.809Z,38.14
2023-04-10T19:43:49.562Z,38.21
2023-04-10T19:46:19.258Z,38.36
2023-04-10T19:48:48.052Z,38.20
2023-04-10T19:51:16.972Z,38.24
2023-04-10T19:53:45.531Z,38.34
2023-04-10T19:56:13.827Z,38.15
2023-04-10T19:58:43.858Z,38.25
2023-04-10T20:01:15.101Z,38.29
2023-04-10T20:03:43.559Z,38.43
2023-04-10T20:06:12.063Z,38.32
2023-04-10T20:08:40.512Z,38.51
2023-04-10T20:11:09.697Z,38.51
2023-04-10T20:13:39.347Z,38.53
2023-04-10T20:16:08.898Z,38.65
2023-04-10T20:18:40.168Z,38.65
2023-04-10T20:21:09.606Z,38.59
2023-04-10T20:23:39.042Z,38.75
2023-04-10T20:26:08.382Z,38.80
2023-04-10T20:28:36.674Z,38.90
2023-04-10T20:31:05.302Z,38.93
2023-04-10T20:33:33.687Z,38.88
2023-04-10T20:36:03.607Z,38.83
2023-04-10T20:38:32.761Z,38.78
2023-04-10T20:41:01.032Z,38.95
2023-04-10T20:43:30.040Z,38.91
2023-04-10T20:45:58.310Z,39.02
2023-04-10T20:48:26.611Z,39.20
2023-04-10T20:50:55.370Z,39.30
2023-04-10T20:53:25.088Z,39.37
2023-04-10T20:55:54.273Z,39.28
2023-04-10T20:58:22.741Z,39.44
2023-04-10T21:00:53.785Z,39.44
2023-04-10T21:03:22.578Z,39.43
2023-04-10T21:05:53.436Z,39.51
2023-04-10T21:08:22.614Z,39.55
2023-04-10T21:10:52.348Z,39.61
2023-04-10T21:13:20.592Z,39.62
2023-04-10T21:15:49.950Z,39.72
2023-04-10T21:18:18.311Z,39.81
2023-04-10T21:20:46.719Z,39.77
2023-04-10T21:23:15.071Z,40.06
2023-04-10T21:25:54.264Z,40.14
2023-04-10T21:28:22.631Z,40.05
2023-04-10T21:30:51.366Z,40.14
2023-04-10T21:33:19.733Z,40.12
2023-04-10T21:35:48.119Z,40.10
2023-04-10T21:38:16.445Z,40.07
2023-04-10T21:40:53.816Z,40.25
2023-04-10T21:43:23.037Z,40.28
2023-04-10T21:45:51.716Z,40.46
2023-04-10T21:48:20.844Z,40.41
2023-04-10T21:50:50.894Z,40.42
2023-04-10T21:53:19.262Z,40.59
2023-04-10T21:55:47.672Z,40.49
2023-04-10T21:58:17.412Z,40.58
2023-04-10T22:00:47.378Z,40.62
2023-04-10T22:03:17.352Z,40.61
2023-04-10T22:05:46.027Z,40.66
2023-04-10T22:08:15.151Z,40.56
2023-04-10T22:10:45.556Z,40.54
2023-04-10T22:13:27.351Z,40.40
2023-04-10T22:16:02.230Z,40.56
2023-04-10T22:18:31.227Z,40.55
2023-04-10T22:20:59.512Z,40.36
2023-04-10T22:23:27.900Z,40.27
2023-04-10T22:25:56.229Z,40.33
2023-04-10T22:28:24.771Z,40.53
2023-04-10T22:30:53.162Z,40.42
2023-04-10T22:33:23.156Z,40.17
2023-04-10T22:35:53.383Z,40.41
2023-04-10T22:38:21.698Z,40.43
2023-04-10T22:40:50.022Z,40.58
2023-04-10T22:43:18.463Z,40.58
2023-04-10T22:45:46.763Z,40.57
2023-04-10T22:48:15.126Z,40.62
2023-04-10T22:50:45.047Z,40.71
2023-04-10T22:53:13.754Z,40.68
2023-04-10T22:55:42.518Z,40.75
2023-04-10T22:58:10.864Z,40.77
2023-04-10T23:00:39.198Z,40.67
2023-04-10T23:03:07.713Z,40.63
2023-04-10T23:05:36.048Z,40.77
2023-04-10T23:08:06.138Z,40.65
2023-04-10T23:10:34.422Z,40.59
2023-04-10T23:13:02.840Z,40.55
2023-04-10T23:15:31.289Z,40.52
2023-04-10T23:17:59.649Z,40.37
2023-04-10T23:20:28.157Z,40.49
2023-04-10T23:22:57.244Z,40.63
2023-04-10T23:25:27.114Z,40.71
2023-04-10T23:27:55.691Z,40.72
2023-04-10T23:30:24.184Z,40.71
2023-04-10T23:32:52.533Z,40.85
2023-04-10T23:35:20.924Z,40.84
2023-04-10T23:37:50.944Z,40.78
2023-04-10T23:40:19.614Z,40.97
2023-04-10T23:42:49.430Z,41.09
2023-04-10T23:45:18.057Z,41.43
2023-04-10T23:47:47.298Z,41.33
2023-04-10T23:50:16.634Z,41.34
2023-04-10T23:52:49.666Z,41.62
2023-04-10T23:55:18.120Z,41.91
2023-04-10T23:57:46.441Z,42.23
